createdAt,value
2023-05-20T00:01:02.006Z,69.44
2023-05-20T00:03:29.721Z,69.56
2023-05-20T00:05:56.398Z,69.09
2023-05-20T00:08:23.059Z,68.83
2023-05-20T00:10:49.647Z,67.91
2023-05-20T00:13:16.518Z,67.33
2023-05-20T00:15:43.099Z,67.41
2023-05-20T00:18:09.582Z,66.73
2023-05-20T00:20:36.130Z,66.24
2023-05-20T00:23:02.807Z,66.34
2023-05-20T00:25:31.424Z,66.26
2023-05-20T00:27:58.025Z,66.34
2023-05-20T00:30:24.581Z,65.44
2023-05-20T00:32:51.069Z,65.51
2023-05-20T00:35:17.777Z,63.77
2023-05-20T00:37:45.559Z,63.95
2023-05-20T00:40:14.238Z,64.09
2023-05-20T00:42:42.078Z,63.96
2023-05-20T00:45:08.998Z,63.38
2023-05-20T00:47:36.789Z,63.94
2023-05-20T00:50:04.108Z,63.69
2023-05-20T00:52:31.982Z,64.02
2023-05-20T00:54:59.656Z,63.78
2023-05-20T00:57:26.359Z,64.63
2023-05-20T00:59:53.375Z,64.36
2023-05-20T01:02:20.013Z,64.41
2023-05-20T01:04:47.372Z,65.03
2023-05-20T01:07:17.470Z,65.40
2023-05-20T01:09:44.724Z,65.57
2023-05-20T01:12:23.545Z,65.94
2023-05-20T01:14:56.761Z,66.38
2023-05-20T01:17:27.186Z,66.08
2023-05-20T01:19:56.493Z,66.46
2023-05-20T01:22:27.485Z,65.72
2023-05-20T01:24:54.125Z,65.47
2023-05-20T01:27:22.539Z,65.53
2023-05-20T01:29:53.140Z,65.50
2023-05-20T01:32:27.832Z,65.20
2023-05-20T01:34:56.223Z,65.47
2023-05-20T01:37:25.184Z,65.21
2023-05-20T01:39:53.438Z,64.70
2023-05-20T01:42:21.137Z,65.55
2023-05-20T01:44:48.356Z,64.75
2023-05-20T01:47:14.926Z,64.24
2023-05-20T01:49:41.933Z,64.76
2023-05-20T01:52:08.480Z,65.10
2023-05-20T01:54:35.804Z,64.63
2023-05-20T01:57:02.934Z,64.52
2023-05-20T01:59:29.484Z,65.47
2023-05-20T02:01:56.000Z,65.58
2023-05-20T02:04:22.678Z,65.34
2023-05-20T02:06:49.272Z,65.29
2023-05-20T02:09:15.944Z,66.07
2023-05-20T02:11:42.469Z,66.13
2023-05-20T02:14:09.008Z,65.81
2023-05-20T02:16:35.544Z,65.84
2023-05-20T02:19:02.128Z,66.33
2023-05-20T02:21:28.744Z,66.36
2023-05-20T02:23:55.211Z,66.25
2023-05-20T02:26:22.567Z,66.85
2023-05-20T02:28:51.065Z,67.01
2023-05-20T02:31:18.083Z,66.33
2023-05-20T02:33:45.601Z,67.13
2023-05-20T02:36:12.440Z,66.75
2023-05-20T02:38:39.112Z,66.80
2023-05-20T02:41:05.581Z,66.76
2023-05-20T02:43:33.140Z,67.12
2023-05-20T02:46:00.979Z,67.31
2023-05-20T02:48:27.533Z,66.90
2023-05-20T02:50:54.263Z,67.62
2023-05-20T02:53:20.992Z,67.41
2023-05-20T02:55:48.703Z,67.81
2023-05-20T02:58:15.326Z,68.00
2023-05-20T03:00:41.987Z,67.81
2023-05-20T03:03:10.263Z,67.72
2023-05-20T03:05:37.607Z,68.39
2023-05-20T03:08:09.763Z,68.66
2023-05-20T03:10:39.664Z,68.40
2023-05-20T03:13:11.404Z,68.76
2023-05-20T03:15:38.975Z,69.27
2023-05-20T03:18:06.102Z,69.26
2023-05-20T03:20:32.786Z,69.35
2023-05-20T03:22:59.381Z,69.34
2023-05-20T03:25:26.257Z,69.29
2023-05-20T03:27:52.840Z,69.81
2023-05-20T03:30:19.814Z,69.57
2023-05-20T03:32:47.735Z,69.82
2023-05-20T03:35:14.517Z,70.07
2023-05-20T03:37:41.940Z,70.24
2023-05-20T03:40:12.904Z,69.62
2023-05-20T03:42:40.531Z,70.22
2023-05-20T03:45:07.621Z,70.17
2023-05-20T03:47:40.626Z,70.20
2023-05-20T03:50:07.801Z,70.16
2023-05-20T03:52:37.102Z,70.24
2023-05-20T03:55:04.277Z,70.65
2023-05-20T03:57:32.127Z,70.46
2023-05-20T03:59:58.591Z,70.16
2023-05-20T04:02:25.687Z,70.20
2023-05-20T04:04:52.850Z,70.77
2023-05-20T04:07:19.649Z,70.64
2023-05-20T04:09:46.792Z,70.83
2023-05-20T04:12:13.862Z,70.46
2023-05-20T04:14:42.165Z,70.80
2023-05-20T04:17:09.554Z,70.67
2023-05-20T04:19:38.137Z,70.91
2023-05-20T04:22:04.834Z,70.82
2023-05-20T04:24:31.371Z,71.44
2023-05-20T04:26:57.837Z,71.54
2023-05-20T04:29:25.487Z,71.71
2023-05-20T04:31:52.222Z,71.67
2023-05-20T04:34:20.325Z,71.48
2023-05-20T04:36:49.169Z,71.85
2023-05-20T04:39:15.720Z,71.87
2023-05-20T04:41:42.329Z,71.26
2023-05-20T04:44:09.454Z,71.84
2023-05-20T04:46:36.098Z,71.87
2023-05-20T04:49:04.473Z,71.76
2023-05-20T04:51:30.973Z,71.76
2023-05-20T04:53:58.942Z,71.20
2023-05-20T04:56:28.312Z,71.22
2023-05-20T04:58:56.065Z,70.90
2023-05-20T05:01:22.631Z,70.79
2023-05-20T05:03:49.241Z,70.08
2023-05-20T05:06:15.730Z,69.77
2023-05-20T05:08:42.391Z,69.89
2023-05-20T05:11:09.181Z,70.44
2023-05-20T05:13:35.837Z,69.86
2023-05-20T05:16:03.394Z,70.31
2023-05-20T05:18:31.560Z,69.56
2023-05-20T05:21:02.882Z,69.72
2023-05-20T05:23:29.588Z,70.06
2023-05-20T05:25:56.524Z,70.13
2023-05-20T05:28:23.697Z,70.03
2023-05-20T05:30:50.549Z,70.05
2023-05-20T05:33:17.540Z,69.19
2023-05-20T05:35:44.574Z,69.16
2023-05-20T05:38:11.160Z,69.72
2023-05-20T05:40:37.648Z,68.99
2023-05-20T05:43:04.537Z,68.29
2023-05-20T05:45:31.231Z,68.71
2023-05-20T05:47:58.632Z,67.67
2023-05-20T05:50:25.974Z,66.96
2023-05-20T05:52:53.454Z,67.41
2023-05-20T05:55:20.889Z,67.21
2023-05-20T05:57:47.470Z,67.00
2023-05-20T06:00:17.054Z,66.40
2023-05-20T06:02:48.124Z,65.55
2023-05-20T06:05:29.647Z,66.26
2023-05-20T06:07:56.743Z,65.50
2023-05-20T06:10:23.764Z,65.49
2023-05-20T06:12:50.353Z,65.07
2023-05-20T06:15:17.777Z,65.23
2023-05-20T06:17:45.279Z,65.28
2023-05-20T06:20:13.128Z,65.41
2023-05-20T06:22:39.802Z,65.37
2023-05-20T06:25:06.841Z,65.39
2023-05-20T06:27:35.384Z,65.26
2023-05-20T06:30:02.113Z,64.21
2023-05-20T06:32:29.350Z,64.51
2023-05-20T06:34:56.971Z,64.42
2023-05-20T06:37:24.480Z,64.43
2023-05-20T06:39:53.748Z,63.67
2023-05-20T06:42:21.331Z,63.61
2023-05-20T06:45:02.687Z,63.84
2023-05-20T06:47:36.195Z,62.92
2023-05-20T06:50:03.315Z,63.60
2023-05-20T06:52:30.958Z,63.09
2023-05-20T06:54:57.437Z,63.52
2023-05-20T06:57:24.135Z,62.57
2023-05-20T06:59:50.711Z,62.85
2023-05-20T07:02:18.521Z,62.31
2023-05-20T07:04:45.442Z,61.69
2023-05-20T07:07:12.009Z,61.97
2023-05-20T07:09:38.769Z,61.98
2023-05-20T07:12:07.179Z,61.39
2023-05-20T07:14:33.632Z,60.59
2023-05-20T07:17:01.984Z,60.05
2023-05-20T07:19:28.871Z,60.37
2023-05-20T07:21:55.380Z,59.55
2023-05-20T07:24:24.416Z,59.53
2023-05-20T07:26:50.991Z,59.37
2023-05-20T07:29:17.495Z,58.54
2023-05-20T07:31:44.430Z,58.37
2023-05-20T07:34:11.021Z,57.95
2023-05-20T07:36:38.211Z,57.54
2023-05-20T07:39:09.530Z,57.34
2023-05-20T07:41:40.019Z,57.03
2023-05-20T07:44:08.612Z,57.13
2023-05-20T07:46:38.289Z,55.40
2023-05-20T07:49:05.997Z,55.59
2023-05-20T07:51:33.651Z,55.77
2023-05-20T07:54:00.162Z,54.06
2023-05-20T07:56:28.242Z,54.62
2023-05-20T07:58:58.150Z,55.27
2023-05-20T08:01:27.977Z,55.13
2023-05-20T08:03:55.415Z,55.50
2023-05-20T08:06:29.469Z,55.50
2023-05-20T08:08:57.121Z,54.82
2023-05-20T08:11:29.229Z,53.96
2023-05-20T08:13:56.990Z,52.81
2023-05-20T08:16:26.277Z,51.73
2023-05-20T08:18:52.838Z,51.50
2023-05-20T08:21:21.623Z,51.17
2023-05-20T08:23:48.307Z,50.74
2023-05-20T08:26:14.771Z,51.00
2023-05-20T08:28:42.576Z,50.65
2023-05-20T08:31:09.727Z,49.58
2023-05-20T08:33:36.702Z,51.02
2023-05-20T08:36:03.389Z,50.62
2023-05-20T08:38:29.932Z,49.99
2023-05-20T08:40:57.180Z,50.18
2023-05-20T08:43:25.060Z,50.15
2023-05-20T08:45:52.721Z,50.04
2023-05-20T08:48:22.991Z,50.58
2023-05-20T08:50:53.707Z,50.29
2023-05-20T08:53:23.644Z,50.66
2023-05-20T08:55:55.395Z,50.86
2023-05-20T08:58:23.354Z,51.90
2023-05-20T09:00:51.136Z,51.55
2023-05-20T09:03:18.508Z,51.25
2023-05-20T09:05:45.185Z,50.86
2023-05-20T09:08:12.247Z,50.97
2023-05-20T09:10:40.571Z,51.06
2023-05-20T09:13:07.994Z,51.02
2023-05-20T09:15:35.638Z,50.45
2023-05-20T09:18:04.285Z,49.07
2023-05-20T09:20:34.017Z,50.41
2023-05-20T09:23:02.936Z,49.88
2023-05-20T09:25:29.603Z,50.09
2023-05-20T09:27:56.769Z,49.92
2023-05-20T09:30:24.283Z,49.94
2023-05-20T09:32:58.711Z,50.90
2023-05-20T09:35:26.538Z,51.05
2023-05-20T09:37:57.219Z,50.06
2023-05-20T09:40:28.219Z,50.51
2023-05-20T09:43:02.658Z,50.06
2023-05-20T09:45:29.608Z,50.69
2023-05-20T09:47:56.846Z,50.71
2023-05-20T09:50:27.312Z,51.29
2023-05-20T09:52:55.194Z,51.21
2023-05-20T09:55:24.266Z,50.88
2023-05-20T09:57:51.777Z,50.34
2023-05-20T10:00:19.543Z,50.60
2023-05-20T10:02:53.403Z,50.91
2023-05-20T10:05:27.059Z,51.10
2023-05-20T10:08:18.851Z,52.27
2023-05-20T10:10:51.180Z,51.28
2023-05-20T10:13:24.227Z,51.67
2023-05-20T10:15:58.862Z,52.37
2023-05-20T10:19:06.762Z,52.54
2023-05-20T10:21:33.370Z,52.94
2023-05-20T10:24:10.503Z,52.74
2023-05-20T10:26:42.601Z,53.23
2023-05-20T10:29:16.953Z,53.21
2023-05-20T10:31:46.773Z,53.82
2023-05-20T10:34:18.215Z,53.86
2023-05-20T10:36:48.324Z,53.78
2023-05-20T10:39:18.878Z,53.73
2023-05-20T10:41:45.712Z,53.57
2023-05-20T10:44:12.309Z,54.89
2023-05-20T10:46:54.398Z,54.09
2023-05-20T10:49:34.856Z,54.76
2023-05-20T10:52:01.812Z,55.55
2023-05-20T10:54:29.384Z,55.92
2023-05-20T10:56:55.856Z,54.65
2023-05-20T10:59:22.849Z,54.93
2023-05-20T11:01:49.645Z,54.33
2023-05-20T11:04:19.845Z,55.08
2023-05-20T11:06:57.023Z,55.34
2023-05-20T11:09:23.892Z,56.08
2023-05-20T11:11:52.416Z,56.06
2023-05-20T11:14:21.599Z,56.41
2023-05-20T11:16:53.159Z,57.56
2023-05-20T11:19:20.252Z,57.81
2023-05-20T11:21:47.694Z,57.18
2023-05-20T11:24:24.264Z,55.78
2023-05-20T11:26:50.782Z,55.64
2023-05-20T11:29:17.838Z,53.80
2023-05-20T11:31:44.530Z,52.95
2023-05-20T11:34:11.164Z,53.09
2023-05-20T11:36:43.911Z,53.00
2023-05-20T11:39:13.541Z,52.85
2023-05-20T11:41:40.012Z,51.96
2023-05-20T11:44:11.096Z,52.52
2023-05-20T11:46:47.405Z,51.67
2023-05-20T11:49:15.134Z,52.02
2023-05-20T11:51:43.276Z,53.02
2023-05-20T11:54:10.570Z,52.47
2023-05-20T11:56:38.452Z,52.90
2023-05-20T11:59:06.519Z,52.17
2023-05-20T12:01:37.614Z,52.16
2023-05-20T12:04:05.597Z,50.98
2023-05-20T12:06:32.669Z,53.31
2023-05-20T12:09:06.719Z,53.25
2023-05-20T12:11:35.656Z,54.12
2023-05-20T12:14:03.859Z,54.24
2023-05-20T12:16:31.978Z,54.71
2023-05-20T12:18:58.871Z,53.72
2023-05-20T12:21:25.477Z,53.85
2023-05-20T12:23:57.409Z,52.87
2023-05-20T12:26:25.776Z,52.41
2023-05-20T12:28:52.542Z,52.49
2023-05-20T12:31:19.710Z,52.47
2023-05-20T12:33:46.825Z,50.80
2023-05-20T12:36:14.498Z,51.38
2023-05-20T12:38:41.260Z,50.97
2023-05-20T12:41:08.085Z,52.01
2023-05-20T12:43:37.356Z,51.41
2023-05-20T12:46:04.194Z,50.50
2023-05-20T12:48:30.860Z,50.69
2023-05-20T12:50:57.379Z,50.03
2023-05-20T12:53:24.111Z,49.92
2023-05-20T12:55:50.657Z,50.99
2023-05-20T12:58:17.805Z,51.01
2023-05-20T13:00:44.766Z,51.65
2023-05-20T13:03:11.766Z,51.60
2023-05-20T13:05:39.049Z,52.64
2023-05-20T13:08:05.832Z,52.44
2023-05-20T13:10:33.384Z,51.61
2023-05-20T13:13:00.042Z,51.90
2023-05-20T13:15:27.264Z,51.51
2023-05-20T13:17:54.382Z,51.85
2023-05-20T13:20:21.432Z,52.14
2023-05-20T13:22:48.770Z,53.42
2023-05-20T13:25:15.253Z,53.39
2023-05-20T13:27:41.708Z,52.62
2023-05-20T13:30:08.562Z,52.56
2023-05-20T13:32:35.196Z,52.58
2023-05-20T13:35:02.923Z,53.47
2023-05-20T13:37:29.992Z,52.89
2023-05-20T13:39:56.550Z,52.55
2023-05-20T13:42:23.303Z,53.37
2023-05-20T13:44:49.920Z,53.18
2023-05-20T13:47:16.516Z,54.58
2023-05-20T13:49:43.476Z,54.45
2023-05-20T13:52:09.902Z,54.30
2023-05-20T13:54:36.455Z,54.18
2023-05-20T13:57:07.832Z,53.81
2023-05-20T13:59:35.070Z,53.48
2023-05-20T14:02:02.134Z,54.34
2023-05-20T14:04:29.045Z,54.20
2023-05-20T14:06:55.748Z,53.98
2023-05-20T14:09:22.293Z,53.11
2023-05-20T14:11:48.988Z,53.64
2023-05-20T14:14:15.434Z,53.19
2023-05-20T14:16:42.065Z,53.09
2023-05-20T14:19:09.249Z,53.85
2023-05-20T14:21:35.828Z,53.47
2023-05-20T14:24:02.364Z,52.62
2023-05-20T14:26:28.837Z,52.72
2023-05-20T14:28:55.457Z,53.01
2023-05-20T14:31:21.910Z,52.53
2023-05-20T14:33:49.284Z,53.18
2023-05-20T14:36:15.965Z,53.18
2023-05-20T14:38:42.661Z,53.83
2023-05-20T14:41:09.746Z,52.97
2023-05-20T14:43:36.693Z,53.53
2023-05-20T14:46:03.443Z,53.55
2023-05-20T14:48:29.904Z,53.51
2023-05-20T14:50:56.328Z,54.52
2023-05-20T14:53:23.254Z,55.49
2023-05-20T14:55:49.876Z,55.02
2023-05-20T14:58:16.586Z,54.35
2023-05-20T15:00:43.686Z,54.58
2023-05-20T15:03:10.300Z,54.42
2023-05-20T15:05:36.996Z,53.94
2023-05-20T15:08:03.758Z,53.80
2023-05-20T15:10:30.635Z,54.19
2023-05-20T15:12:57.096Z,54.74
2023-05-20T15:15:23.783Z,54.98
2023-05-20T15:17:50.629Z,54.90
2023-05-20T15:20:17.664Z,54.34
2023-05-20T15:22:48.259Z,54.27
2023-05-20T15:25:15.084Z,54.38
2023-05-20T15:27:42.342Z,54.25
2023-05-20T15:30:09.853Z,54.14
2023-05-20T15:32:36.497Z,54.31
2023-05-20T15:35:04.210Z,55.07
2023-05-20T15:37:30.718Z,55.26
2023-05-20T15:39:57.183Z,55.83
2023-05-20T15:42:23.721Z,55.61
2023-05-20T15:44:50.286Z,55.67
2023-05-20T15:47:16.902Z,55.49
2023-05-20T15:49:44.176Z,56.39
2023-05-20T15:52:10.764Z,56.35
2023-05-20T15:54:37.238Z,56.03
2023-05-20T15:57:03.908Z,57.07
2023-05-20T15:59:30.371Z,56.81
2023-05-20T16:01:56.937Z,57.13
2023-05-20T16:04:23.499Z,57.65
2023-05-20T16:06:50.668Z,58.27
2023-05-20T16:09:17.461Z,58.62
2023-05-20T16:11:44.416Z,58.59
2023-05-20T16:14:11.091Z,58.15
2023-05-20T16:16:37.677Z,58.60
2023-05-20T16:19:04.269Z,58.31
2023-05-20T16:21:31.281Z,58.53
2023-05-20T16:23:57.742Z,59.25
2023-05-20T16:26:25.002Z,58.93
2023-05-20T16:28:51.712Z,58.56
2023-05-20T16:31:18.304Z,59.48
2023-05-20T16:33:44.874Z,59.39
2023-05-20T16:36:12.084Z,60.45
2023-05-20T16:38:38.921Z,59.95
2023-05-20T16:41:05.467Z,60.09
2023-05-20T16:43:31.888Z,59.76
2023-05-20T16:45:58.524Z,59.46
2023-05-20T16:48:25.586Z,59.85
2023-05-20T16:50:52.013Z,60.37
2023-05-20T16:53:18.846Z,60.76
2023-05-20T16:55:46.026Z,60.36
2023-05-20T16:58:12.610Z,60.48
2023-05-20T17:00:39.159Z,60.42
2023-05-20T17:03:05.634Z,60.14
2023-05-20T17:05:32.134Z,60.78
2023-05-20T17:08:00.325Z,60.89
2023-05-20T17:10:28.762Z,60.94
2023-05-20T17:12:55.582Z,61.09
2023-05-20T17:15:23.311Z,60.43
2023-05-20T17:17:50.564Z,60.75
2023-05-20T17:20:17.902Z,61.12
2023-05-20T17:22:44.769Z,61.38
2023-05-20T17:25:11.370Z,61.64
2023-05-20T17:27:38.285Z,61.63
2023-05-20T17:30:05.494Z,61.79
2023-05-20T17:32:31.933Z,62.20
2023-05-20T17:34:58.561Z,62.14
2023-05-20T17:37:25.191Z,62.43
2023-05-20T17:39:51.896Z,62.22
2023-05-20T17:42:18.637Z,61.96
2023-05-20T17:44:45.955Z,62.27
2023-05-20T17:47:12.520Z,62.14
2023-05-20T17:49:39.070Z,62.19
2023-05-20T17:52:05.990Z,62.70
2023-05-20T17:54:32.485Z,62.24
2023-05-20T17:56:59.055Z,62.36
2023-05-20T17:59:25.832Z,62.36
2023-05-20T18:01:52.867Z,63.02
2023-05-20T18:04:21.305Z,62.78
2023-05-20T18:06:48.014Z,63.04
2023-05-20T18:09:14.520Z,63.29
2023-05-20T18:11:40.992Z,63.33
2023-05-20T18:14:10.338Z,63.78
2023-05-20T18:16:39.568Z,63.95
2023-05-20T18:19:06.374Z,63.67
2023-05-20T18:21:32.812Z,63.44
2023-05-20T18:23:59.289Z,63.53
2023-05-20T18:26:26.467Z,63.96
2023-05-20T18:28:53.034Z,63.97
2023-05-20T18:31:19.810Z,63.70
2023-05-20T18:33:46.652Z,63.60
2023-05-20T18:36:13.323Z,63.08
2023-05-20T18:38:41.479Z,63.94
2023-05-20T18:41:08.737Z,64.00
2023-05-20T18:43:35.516Z,64.11
2023-05-20T18:46:02.357Z,64.41
2023-05-20T18:48:29.022Z,63.79
2023-05-20T18:50:56.332Z,64.05
2023-05-20T18:53:23.808Z,63.93
2023-05-20T18:55:55.763Z,64.05
2023-05-20T18:58:22.343Z,64.55
2023-05-20T19:00:49.091Z,64.34
2023-05-20T19:03:15.818Z,64.53
2023-05-20T19:05:42.357Z,64.78
2023-05-20T19:08:09.236Z,65.19
2023-05-20T19:10:35.698Z,65.07
2023-05-20T19:13:02.146Z,65.27
2023-05-20T19:15:30.142Z,64.99
2023-05-20T19:17:56.689Z,65.68
2023-05-20T19:20:23.182Z,65.50
2023-05-20T19:22:49.677Z,65.31
2023-05-20T19:25:16.340Z,65.55
2023-05-20T19:27:42.845Z,65.54
2023-05-20T19:30:11.018Z,65.71
2023-05-20T19:32:38.713Z,65.67
2023-05-20T19:35:06.125Z,65.85
2023-05-20T19:37:32.760Z,65.79
2023-05-20T19:39:59.422Z,66.04
2023-05-20T19:42:25.856Z,66.08
2023-05-20T19:44:53.522Z,66.66
2023-05-20T19:47:20.092Z,66.41
2023-05-20T19:49:46.848Z,66.68
2023-05-20T19:52:13.377Z,66.71
2023-05-20T19:54:41.639Z,66.70
2023-05-20T19:57:08.079Z,67.12
2023-05-20T19:59:36.261Z,67.04
2023-05-20T20:02:03.878Z,67.72
2023-05-20T20:04:30.546Z,67.43
2023-05-20T20:06:57.048Z,68.00
2023-05-20T20:09:23.490Z,68.36
2023-05-20T20:11:50.098Z,67.94
2023-05-20T20:14:16.577Z,68.31
2023-05-20T20:16:46.567Z,68.72
2023-05-20T20:19:13.221Z,68.54
2023-05-20T20:21:40.307Z,68.71
2023-05-20T20:24:06.813Z,68.76
2023-05-20T20:26:34.524Z,68.49
2023-05-20T20:29:00.984Z,68.84
2023-05-20T20:31:27.553Z,69.27
2023-05-20T20:33:54.123Z,69.04
2023-05-20T20:36:20.793Z,69.76
2023-05-20T20:38:47.274Z,69.94
2023-05-20T20:41:16.178Z,70.03
2023-05-20T20:43:45.914Z,70.08
2023-05-20T20:46:15.648Z,69.97
2023-05-20T20:48:45.855Z,70.52
2023-05-20T20:51:13.597Z,70.94
2023-05-20T20:53:43.430Z,70.94
2023-05-20T20:56:10.048Z,71.36
2023-05-20T20:58:37.467Z,71.83
2023-05-20T21:01:05.694Z,71.90
2023-05-20T21:03:39.943Z,72.27
2023-05-20T21:06:07.467Z,72.75
2023-05-20T21:08:33.938Z,73.36
2023-05-20T21:11:00.444Z,73.68
2023-05-20T21:13:28.584Z,73.72
2023-05-20T21:15:55.271Z,74.13
2023-05-20T21:18:22.846Z,74.74
2023-05-20T21:20:53.711Z,75.02
2023-05-20T21:23:21.229Z,74.60
2023-05-20T21:25:48.721Z,74.85
2023-05-20T21:28:16.022Z,75.66
2023-05-20T21:30:42.524Z,75.51
2023-05-20T21:33:09.048Z,76.56
2023-05-20T21:35:35.709Z,76.15
2023-05-20T21:38:02.812Z,76.31
2023-05-20T21:40:29.265Z,76.27
2023-05-20T21:42:55.794Z,76.27
2023-05-20T21:45:22.203Z,76.58
2023-05-20T21:47:48.824Z,76.64
2023-05-20T21:50:15.533Z,76.27
2023-05-20T21:52:42.014Z,76.54
2023-05-20T21:55:09.729Z,76.29
2023-05-20T21:57:36.538Z,76.81
2023-05-20T22:00:15.117Z,76.87
2023-05-20T22:02:45.977Z,77.23
2023-05-20T22:05:12.875Z,76.67
2023-05-20T22:07:43.078Z,77.48
2023-05-20T22:10:10.701Z,77.02
2023-05-20T22:12:38.035Z,77.54
2023-05-20T22:15:05.659Z,77.53
2023-05-20T22:17:39.366Z,77.94
2023-05-20T22:20:10.459Z,77.99
2023-05-20T22:22:39.038Z,78.22
2023-05-20T22:25:06.667Z,79.04
2023-05-20T22:27:34.756Z,77.86
2023-05-20T22:30:01.639Z,78.22
2023-05-20T22:32:28.046Z,78.05
2023-05-20T22:34:58.379Z,78.82
2023-05-20T22:37:26.647Z,78.59
2023-05-20T22:39:53.085Z,78.87
2023-05-20T22:42:19.588Z,79.66
2023-05-20T22:44:46.166Z,79.57
2023-05-20T22:47:12.629Z,79.66
2023-05-20T22:49:40.375Z,80.20
2023-05-20T22:52:07.703Z,80.43
2023-05-20T22:54:34.822Z,80.25
2023-05-20T22:57:01.348Z,80.64
2023-05-20T22:59:31.054Z,81.48
2023-05-20T23:01:57.634Z,81.17
2023-05-20T23:04:24.178Z,80.97
2023-05-20T23:06:53.721Z,81.06
2023-05-20T23:09:21.109Z,81.02
2023-05-20T23:11:47.776Z,81.34
2023-05-20T23:14:14.528Z,81.74
2023-05-20T23:16:41.984Z,81.81
2023-05-20T23:19:08.854Z,82.00
2023-05-20T23:21:35.405Z,81.97
2023-05-20T23:24:01.853Z,81.99
2023-05-20T23:26:28.786Z,82.51
2023-05-20T23:28:55.344Z,82.52
2023-05-20T23:31:22.541Z,82.60
2023-05-20T23:33:49.654Z,82.92
2023-05-20T23:36:17.066Z,83.34
2023-05-20T23:38:43.754Z,82.92
2023-05-20T23:41:10.252Z,83.01
2023-05-20T23:43:36.859Z,83.26
2023-05-20T23:46:03.356Z,83.63
2023-05-20T23:48:29.829Z,84.38
2023-05-20T23:50:56.295Z,84.77
2023-05-20T23:53:22.764Z,84.90
2023-05-20T23:55:49.715Z,84.43
2023-05-20T23:58:16.749Z,85.33
